createdAt,value
2019-04-10T00:01:36.108Z,66.79
2019-04-10T00:04:10.500Z,67.02
2019-04-10T00:06:44.657Z,66.76
2019-04-10T00:09:18.986Z,67.22
2019-04-10T00:11:53.491Z,68.17
2019-04-10T00:14:28.252Z,66.81
2019-04-10T00:17:02.710Z,67.24
2019-04-10T00:19:36.530Z,67.54
2019-04-10T00:22:10.322Z,67.38
2019-04-10T00:24:44.251Z,67.08
2019-04-10T00:27:18.660Z,67.87
2019-04-10T00:29:52.624Z,67.83
2019-04-10T00:32:27.818Z,68.49
2019-04-10T00:35:02.550Z,68.45
2019-04-10T00:37:37.149Z,68.27
2019-04-10T00:40:11.585Z,68.96
2019-04-10T00:42:45.462Z,69.08
2019-04-10T00:45:19.563Z,69.17
2019-04-10T00:47:53.714Z,69.46
2019-04-10T00:50:28.389Z,69.40
2019-04-10T00:53:03.006Z,69.44
2019-04-10T00:55:37.609Z,69.72
2019-04-10T00:58:12.092Z,70.32
2019-04-10T01:00:46.095Z,70.06
2019-04-10T01:03:38.185Z,70.49
2019-04-10T01:06:13.423Z,70.96
2019-04-10T01:08:47.425Z,70.93
2019-04-10T01:11:21.228Z,70.84
2019-04-10T01:13:55.206Z,70.76
2019-04-10T01:16:29.006Z,71.96
2019-04-10T01:19:03.694Z,71.25
2019-04-10T01:21:38.759Z,71.22
2019-04-10T01:24:13.181Z,71.21
2019-04-10T01:26:47.558Z,72.02
2019-04-10T01:29:21.738Z,71.94
2019-04-10T01:31:55.399Z,71.52
2019-04-10T01:34:29.535Z,72.16
2019-04-10T01:37:04.770Z,72.24
2019-04-10T01:39:38.653Z,72.03
2019-04-10T01:42:12.511Z,71.87
2019-04-10T01:44:47.052Z,72.42
2019-04-10T01:47:21.366Z,72.84
2019-04-10T01:49:55.783Z,72.50
2019-04-10T01:52:29.546Z,73.11
2019-04-10T01:55:18.166Z,73.23
2019-04-10T01:57:39.354Z,73.32
2019-04-10T02:00:16.484Z,73.37
2019-04-10T02:02:51.904Z,73.41
2019-04-10T02:05:25.576Z,73.52
2019-04-10T02:08:07.946Z,73.51
2019-04-10T02:10:36.326Z,73.62
2019-04-10T02:13:10.247Z,73.53
2019-04-10T02:15:44.289Z,73.83
2019-04-10T02:18:18.029Z,74.15
2019-04-10T02:20:51.759Z,74.32
2019-04-10T02:23:26.072Z,74.87
2019-04-10T02:25:59.896Z,74.28
2019-04-10T02:28:33.631Z,74.74
2019-04-10T02:31:07.375Z,74.63
2019-04-10T02:33:41.332Z,75.08
2019-04-10T02:36:15.116Z,75.19
2019-04-10T02:39:04.645Z,74.92
2019-04-10T02:41:25.514Z,74.88
2019-04-10T02:44:00.019Z,75.07
2019-04-10T02:46:34.795Z,75.47
2019-04-10T02:49:08.857Z,75.82
2019-04-10T02:51:43.296Z,76.04
2019-04-10T02:54:17.576Z,76.12
2019-04-10T02:56:52.789Z,76.08
2019-04-10T02:59:27.164Z,76.73
2019-04-10T03:02:02.367Z,76.55
2019-04-10T03:04:37.234Z,76.95
2019-04-10T03:07:11.659Z,77.55
2019-04-10T03:10:00.866Z,77.07
2019-04-10T03:12:22.079Z,77.47
2019-04-10T03:14:58.959Z,77.61
2019-04-10T03:17:33.263Z,77.73
2019-04-10T03:20:07.960Z,77.84
2019-04-10T03:22:41.616Z,77.84
2019-04-10T03:25:15.412Z,78.03
2019-04-10T03:27:50.137Z,77.75
2019-04-10T03:30:24.055Z,78.09
2019-04-10T03:33:22.652Z,78.11
2019-04-10T03:35:55.397Z,78.25
2019-04-10T03:38:29.951Z,78.13
2019-04-10T03:41:04.064Z,78.42
2019-04-10T03:43:38.433Z,78.27
2019-04-10T03:46:13.009Z,78.07
2019-04-10T03:48:47.322Z,78.61
2019-04-10T03:51:21.089Z,77.91
2019-04-10T03:53:55.095Z,78.49
2019-04-10T03:56:29.704Z,78.65
2019-04-10T03:59:04.147Z,78.61
2019-04-10T04:01:38.848Z,78.61
2019-04-10T04:04:13.322Z,78.40
2019-04-10T04:06:48.166Z,78.55
2019-04-10T04:09:22.235Z,78.86
2019-04-10T04:11:55.947Z,78.76
2019-04-10T04:14:30.506Z,78.58
2019-04-10T04:17:04.567Z,78.60
2019-04-10T04:19:38.308Z,79.37
2019-04-10T04:22:12.541Z,79.52
2019-04-10T04:24:46.906Z,79.88
2019-04-10T04:27:21.624Z,79.43
2019-04-10T04:29:55.399Z,79.43
2019-04-10T04:32:29.379Z,79.98
2019-04-10T04:35:03.347Z,79.54
2019-04-10T04:37:37.926Z,79.92
2019-04-10T04:40:11.879Z,79.33
2019-04-10T04:42:45.719Z,80.06
2019-04-10T04:45:19.700Z,79.91
2019-04-10T04:47:55.569Z,79.80
2019-04-10T04:50:29.677Z,79.71
2019-04-10T04:53:04.473Z,79.91
2019-04-10T04:55:38.214Z,80.40
2019-04-10T04:58:12.249Z,80.69
2019-04-10T05:00:46.019Z,80.16
2019-04-10T05:03:20.751Z,80.40
2019-04-10T05:05:56.196Z,80.38
2019-04-10T05:08:30.325Z,79.85
2019-04-10T05:11:04.372Z,80.32
2019-04-10T05:13:38.338Z,80.17
2019-04-10T05:16:12.089Z,79.85
2019-04-10T05:18:45.979Z,80.28
2019-04-10T05:21:21.008Z,79.70
2019-04-10T05:23:55.458Z,79.68
2019-04-10T05:26:29.500Z,79.66
2019-04-10T05:29:03.220Z,79.47
2019-04-10T05:31:36.951Z,79.61
2019-04-10T05:34:11.437Z,79.43
2019-04-10T05:36:45.445Z,79.84
2019-04-10T05:39:19.208Z,79.08
2019-04-10T05:41:52.890Z,78.44
2019-04-10T05:44:27.738Z,78.74
2019-04-10T05:47:01.719Z,78.56
2019-04-10T05:49:35.444Z,78.27
2019-04-10T05:52:10.386Z,78.35
2019-04-10T05:54:44.193Z,77.91
2019-04-10T05:57:18.075Z,77.78
2019-04-10T05:59:52.363Z,78.20
2019-04-10T06:02:27.135Z,77.25
2019-04-10T06:05:02.337Z,77.05
2019-04-10T06:07:37.135Z,77.24
2019-04-10T06:10:11.313Z,76.89
2019-04-10T06:12:45.112Z,76.62
2019-04-10T06:15:19.176Z,76.14
2019-04-10T06:17:52.921Z,75.16
2019-04-10T06:20:26.637Z,74.58
2019-04-10T06:23:01.265Z,73.77
2019-04-10T06:25:38.145Z,73.59
2019-04-10T06:28:10.448Z,73.00
2019-04-10T06:30:44.155Z,73.57
2019-04-10T06:33:18.086Z,72.47
2019-04-10T06:35:52.860Z,72.25
2019-04-10T06:38:26.897Z,71.88
2019-04-10T06:41:00.622Z,72.30
2019-04-10T06:43:34.427Z,70.79
2019-04-10T06:46:08.442Z,71.12
2019-04-10T06:48:42.482Z,70.05
2019-04-10T06:51:18.877Z,70.36
2019-04-10T06:54:01.797Z,70.09
2019-04-10T06:56:27.603Z,69.78
2019-04-10T06:59:02.526Z,69.93
2019-04-10T07:01:45.422Z,68.89
2019-04-10T07:04:12.152Z,68.95
2019-04-10T07:06:55.708Z,68.17
2019-04-10T07:09:26.159Z,68.12
2019-04-10T07:12:00.189Z,67.17
2019-04-10T07:14:36.504Z,66.49
2019-04-10T07:17:10.496Z,66.16
2019-04-10T07:19:45.947Z,65.52
2019-04-10T07:22:20.724Z,65.90
2019-04-10T07:24:54.561Z,65.84
2019-04-10T07:27:28.350Z,65.20
2019-04-10T07:30:02.168Z,63.94
2019-04-10T07:32:36.191Z,63.33
2019-04-10T07:35:13.997Z,63.80
2019-04-10T07:37:52.753Z,63.91
2019-04-10T07:40:22.876Z,62.90
2019-04-10T07:42:56.873Z,64.10
2019-04-10T07:45:30.726Z,63.60
2019-04-10T07:48:04.696Z,61.95
2019-04-10T07:50:39.062Z,60.21
2019-04-10T07:53:12.884Z,59.25
2019-04-10T07:55:58.338Z,57.33
2019-04-10T07:58:23.533Z,58.25
2019-04-10T08:00:57.535Z,58.21
2019-04-10T08:03:31.638Z,57.53
2019-04-10T08:06:06.728Z,57.13
2019-04-10T08:08:40.654Z,57.02
2019-04-10T08:11:15.425Z,57.38
2019-04-10T08:13:49.297Z,56.26
2019-04-10T08:16:23.233Z,55.45
2019-04-10T08:18:57.060Z,54.59
2019-04-10T08:21:31.669Z,52.75
2019-04-10T08:24:05.941Z,50.41
2019-04-10T08:26:40.946Z,49.29
2019-04-10T08:29:14.705Z,49.29
2019-04-10T08:31:48.667Z,47.02
2019-04-10T08:34:22.458Z,46.04
2019-04-10T08:36:56.780Z,43.04
2019-04-10T08:39:38.781Z,40.70
2019-04-10T08:42:06.501Z,40.85
2019-04-10T08:44:40.791Z,39.86
2019-04-10T08:47:15.256Z,39.48
2019-04-10T08:49:49.446Z,38.32
2019-04-10T08:52:24.187Z,36.74
2019-04-10T08:54:59.522Z,37.17
2019-04-10T08:57:34.200Z,36.38
2019-04-10T09:00:10.196Z,35.60
2019-04-10T09:02:44.434Z,36.14
2019-04-10T09:05:19.338Z,35.61
2019-04-10T09:07:54.662Z,33.82
2019-04-10T09:10:28.577Z,31.78
2019-04-10T09:13:02.579Z,32.05
2019-04-10T09:15:36.523Z,31.20
2019-04-10T09:18:11.363Z,30.69
2019-04-10T09:20:46.919Z,29.31
2019-04-10T09:23:30.751Z,29.47
2019-04-10T09:25:57.556Z,28.39
2019-04-10T09:28:32.710Z,27.30
2019-04-10T09:31:07.372Z,27.54
2019-04-10T09:33:41.382Z,28.17
2019-04-10T09:36:15.224Z,27.37
2019-04-10T09:38:48.970Z,27.04
2019-04-10T09:41:22.794Z,27.09
2019-04-10T09:43:58.184Z,26.95
2019-04-10T09:46:33.005Z,26.26
2019-04-10T09:49:07.139Z,26.19
2019-04-10T09:51:41.138Z,26.65
2019-04-10T09:54:15.450Z,26.60
2019-04-10T09:56:50.694Z,26.03
2019-04-10T09:59:32.925Z,24.85
2019-04-10T10:02:00.752Z,25.83
2019-04-10T10:04:34.471Z,25.09
2019-04-10T10:07:08.309Z,24.53
2019-04-10T10:09:43.140Z,24.93
2019-04-10T10:12:17.950Z,25.07
2019-04-10T10:14:51.958Z,24.41
2019-04-10T10:17:25.700Z,23.82
2019-04-10T10:19:59.561Z,23.08
2019-04-10T10:22:33.587Z,22.31
2019-04-10T10:25:08.701Z,24.00
2019-04-10T10:27:42.724Z,23.62
2019-04-10T10:30:17.626Z,23.06
2019-04-10T10:32:51.355Z,20.81
2019-04-10T10:35:25.283Z,22.33
2019-04-10T10:37:59.373Z,21.29
2019-04-10T10:40:33.962Z,21.86
2019-04-10T10:43:07.934Z,21.37
2019-04-10T10:45:42.814Z,21.49
2019-04-10T10:48:17.535Z,21.43
2019-04-10T10:50:51.504Z,20.57
2019-04-10T10:53:25.293Z,19.24
2019-04-10T10:55:59.891Z,20.18
2019-04-10T10:58:34.042Z,19.80
2019-04-10T11:01:07.902Z,19.68
2019-04-10T11:03:42.545Z,19.22
2019-04-10T11:06:17.750Z,18.81
2019-04-10T11:08:51.549Z,19.69
2019-04-10T11:11:25.329Z,21.62
2019-04-10T11:13:59.062Z,20.29
2019-04-10T11:16:33.927Z,20.67
2019-04-10T11:19:08.059Z,21.04
2019-04-10T11:21:42.953Z,20.52
2019-04-10T11:24:17.527Z,20.76
2019-04-10T11:29:38.993Z,19.20
2019-04-10T11:32:14.354Z,18.83
2019-04-10T11:34:49.375Z,18.21
2019-04-10T11:37:33.759Z,18.74
2019-04-10T11:40:01.219Z,19.50
2019-04-10T11:42:35.163Z,18.62
2019-04-10T11:45:10.903Z,19.56
2019-04-10T11:47:45.017Z,19.84
2019-04-10T11:50:19.469Z,18.20
2019-04-10T11:52:55.913Z,19.89
2019-04-10T11:55:29.734Z,19.11
2019-04-10T11:58:05.365Z,19.26
2019-04-10T12:00:50.760Z,17.50
2019-04-10T12:03:18.180Z,18.59
2019-04-10T12:05:55.137Z,18.59
2019-04-10T12:08:50.278Z,16.86
2019-04-10T12:13:38.619Z,17.63
2019-04-10T12:16:12.630Z,17.81
2019-04-10T12:18:46.820Z,18.02
2019-04-10T12:21:20.613Z,19.09
2019-04-10T12:23:54.317Z,18.01
2019-04-10T12:26:28.361Z,19.24
2019-04-10T12:29:02.507Z,18.39
2019-04-10T12:31:36.495Z,18.20
2019-04-10T12:34:10.780Z,17.88
2019-04-10T12:36:44.857Z,16.76
2019-04-10T12:39:18.645Z,15.86
2019-04-10T12:41:52.353Z,18.13
2019-04-10T12:44:26.123Z,17.18
2019-04-10T12:46:59.900Z,17.25
2019-04-10T12:49:33.935Z,17.17
2019-04-10T12:52:08.081Z,18.00
2019-04-10T12:54:42.738Z,18.04
2019-04-10T12:57:17.011Z,17.61
2019-04-10T12:59:50.712Z,16.45
2019-04-10T13:02:24.426Z,17.14
2019-04-10T13:04:58.128Z,16.95
2019-04-10T13:07:31.837Z,16.17
2019-04-10T13:10:06.574Z,17.27
2019-04-10T13:12:40.342Z,17.12
2019-04-10T13:15:15.074Z,17.28
2019-04-10T13:17:49.108Z,18.96
2019-04-10T13:20:23.981Z,19.49
2019-04-10T13:22:58.317Z,18.66
2019-04-10T13:25:32.472Z,19.14
2019-04-10T13:28:08.228Z,18.95
2019-04-10T13:30:50.635Z,18.14
2019-04-10T13:33:17.310Z,19.12
2019-04-10T13:35:51.189Z,19.23
2019-04-10T13:38:30.934Z,20.33
2019-04-10T13:41:01.870Z,20.67
2019-04-10T13:43:36.031Z,19.74
2019-04-10T13:46:10.818Z,19.71
2019-04-10T13:48:45.214Z,21.00
2019-04-10T13:51:19.348Z,19.73
2019-04-10T13:53:53.001Z,21.12
2019-04-10T13:56:26.844Z,20.22
2019-04-10T13:59:01.066Z,20.77
2019-04-10T14:01:35.701Z,19.71
2019-04-10T14:04:09.424Z,21.11
2019-04-10T14:06:44.155Z,20.14
2019-04-10T14:09:31.104Z,20.32
2019-04-10T14:11:54.813Z,20.54
2019-04-10T14:14:28.837Z,21.25
2019-04-10T14:17:04.408Z,21.61
2019-04-10T14:19:39.403Z,20.38
2019-04-10T14:22:13.602Z,19.18
2019-04-10T14:24:49.726Z,19.96
2019-04-10T14:27:25.339Z,21.24
2019-04-10T14:29:59.042Z,21.38
2019-04-10T14:32:37.714Z,21.63
2019-04-10T14:35:11.633Z,21.42
2019-04-10T14:37:45.681Z,21.46
2019-04-10T14:40:20.070Z,20.56
2019-04-10T14:42:55.595Z,20.50
2019-04-10T14:45:29.758Z,21.90
2019-04-10T14:48:03.604Z,21.89
2019-04-10T14:50:37.860Z,19.98
2019-04-10T14:53:12.158Z,20.82
2019-04-10T14:55:46.050Z,21.28
2019-04-10T14:58:25.154Z,21.03
2019-04-10T15:00:57.823Z,22.12
2019-04-10T15:03:32.778Z,21.98
2019-04-10T15:06:07.685Z,21.38
2019-04-10T15:08:41.852Z,22.89
2019-04-10T15:11:16.266Z,23.89
2019-04-10T15:13:50.767Z,25.27
2019-04-10T15:16:25.267Z,28.12
2019-04-10T15:19:00.316Z,29.62
2019-04-10T15:21:34.748Z,30.64
2019-04-10T15:24:08.947Z,31.31
2019-04-10T15:26:42.698Z,33.50
2019-04-10T15:29:16.544Z,34.17
2019-04-10T15:31:50.619Z,34.99
2019-04-10T15:34:24.429Z,35.58
2019-04-10T15:36:58.549Z,35.38
2019-04-10T15:39:37.080Z,37.16
2019-04-10T15:42:07.979Z,37.09
2019-04-10T15:44:42.772Z,36.98
2019-04-10T15:47:22.176Z,37.24
2019-04-10T15:49:53.528Z,38.10
2019-04-10T15:52:27.603Z,37.50
2019-04-10T15:55:01.655Z,37.99
2019-04-10T15:57:44.846Z,38.57
2019-04-10T16:00:12.839Z,38.65
2019-04-10T16:02:48.916Z,39.35
2019-04-10T16:05:23.671Z,38.89
2019-04-10T16:07:58.587Z,39.48
2019-04-10T16:10:50.461Z,40.71
2019-04-10T16:13:32.536Z,40.50
2019-04-10T16:16:25.502Z,40.78
2019-04-10T16:19:10.591Z,39.29
2019-04-10T16:21:45.731Z,41.73
2019-04-10T16:24:20.649Z,42.35
2019-04-10T16:26:54.528Z,43.46
2019-04-10T16:29:28.848Z,42.92
2019-04-10T16:32:04.176Z,41.82
2019-04-10T16:34:38.698Z,42.26
2019-04-10T16:37:12.673Z,41.13
2019-04-10T16:39:57.812Z,40.65
2019-04-10T16:42:22.868Z,41.62
2019-04-10T16:44:57.611Z,42.72
2019-04-10T16:47:32.379Z,41.31
2019-04-10T16:50:06.727Z,41.31
2019-04-10T16:52:41.058Z,39.07
2019-04-10T16:55:15.639Z,39.57
2019-04-10T16:57:49.623Z,39.57
2019-04-10T17:00:23.704Z,38.56
2019-04-10T17:02:57.610Z,38.56
2019-04-10T17:05:33.754Z,38.98
2019-04-10T17:08:07.792Z,38.58
2019-04-10T17:10:42.843Z,38.09
2019-04-10T17:13:18.313Z,39.26
2019-04-10T17:15:53.377Z,38.99
2019-04-10T17:18:27.541Z,38.61
2019-04-10T17:21:01.252Z,38.61
2019-04-10T17:23:36.422Z,38.38
2019-04-10T17:26:11.023Z,38.38
2019-04-10T17:28:44.952Z,39.92
2019-04-10T17:31:19.144Z,39.49
2019-04-10T17:33:54.337Z,39.33
2019-04-10T17:36:29.335Z,41.21
2019-04-10T17:39:03.702Z,42.75
2019-04-10T17:41:37.455Z,42.97
2019-04-10T17:44:11.708Z,44.11
2019-04-10T17:46:45.641Z,44.11
2019-04-10T17:49:19.724Z,43.74
2019-04-10T17:51:54.603Z,43.74
2019-04-10T17:54:29.788Z,44.25
2019-04-10T17:57:04.537Z,44.25
2019-04-10T17:59:38.572Z,45.38
2019-04-10T18:02:13.755Z,47.10
2019-04-10T18:04:48.329Z,47.10
2019-04-10T18:07:22.314Z,48.00
2019-04-10T18:09:56.215Z,48.63
2019-04-10T18:12:30.096Z,49.39
2019-04-10T18:15:04.259Z,49.42
2019-04-10T18:17:38.714Z,50.10
2019-04-10T18:20:12.945Z,49.55
2019-04-10T18:22:46.992Z,50.16
2019-04-10T18:25:22.212Z,50.60
2019-04-10T18:27:56.905Z,51.35
2019-04-10T18:30:32.984Z,51.51
2019-04-10T18:33:07.687Z,52.44
2019-04-10T18:35:42.811Z,52.43
2019-04-10T18:38:17.399Z,52.78
2019-04-10T18:40:55.718Z,53.25
2019-04-10T18:43:28.245Z,53.42
2019-04-10T18:46:10.718Z,53.94
2019-04-10T18:48:38.916Z,53.80
2019-04-10T18:51:13.887Z,54.53
2019-04-10T18:53:49.125Z,54.50
2019-04-10T18:56:23.283Z,55.30
2019-04-10T18:59:05.726Z,55.50
2019-04-10T19:02:03.249Z,56.17
2019-04-10T19:04:43.268Z,56.01
2019-04-10T19:07:17.436Z,56.28
2019-04-10T19:09:52.563Z,56.84
2019-04-10T19:12:26.601Z,57.16
2019-04-10T19:15:00.345Z,57.25
2019-04-10T19:17:35.106Z,58.35
2019-04-10T19:20:11.114Z,57.88
2019-04-10T19:22:44.928Z,58.25
2019-04-10T19:25:18.872Z,59.06
2019-04-10T19:27:52.784Z,59.08
2019-04-10T19:30:41.716Z,59.66
2019-04-10T19:33:16.209Z,60.06
2019-04-10T19:35:50.933Z,59.54
2019-04-10T19:38:25.254Z,59.84
2019-04-10T19:41:00.488Z,60.70
2019-04-10T19:43:34.771Z,60.64
2019-04-10T19:46:09.903Z,60.28
2019-04-10T19:48:43.790Z,61.08
2019-04-10T19:51:18.390Z,60.71
2019-04-10T19:53:53.343Z,61.26
2019-04-10T19:56:27.323Z,61.14
2019-04-10T19:59:01.320Z,61.44
2019-04-10T20:01:36.075Z,61.53
2019-04-10T20:04:10.447Z,62.26
2019-04-10T20:06:44.831Z,62.19
2019-04-10T20:09:20.066Z,62.48
2019-04-10T20:11:56.141Z,62.79
2019-04-10T20:14:30.914Z,63.40
2019-04-10T20:17:05.936Z,63.35
2019-04-10T20:19:40.381Z,63.64
2019-04-10T20:22:14.737Z,63.88
2019-04-10T20:24:50.111Z,64.42
2019-04-10T20:27:24.088Z,64.15
2019-04-10T20:29:58.050Z,64.57
2019-04-10T20:32:32.239Z,64.65
2019-04-10T20:35:07.686Z,65.37
2019-04-10T20:37:42.838Z,65.32
2019-04-10T20:40:18.065Z,65.59
2019-04-10T20:42:52.356Z,65.78
2019-04-10T20:45:26.663Z,65.97
2019-04-10T20:48:00.785Z,66.18
2019-04-10T20:50:36.298Z,66.48
2019-04-10T20:53:10.005Z,66.84
2019-04-10T20:55:44.085Z,67.15
2019-04-10T20:58:19.096Z,67.64
2019-04-10T21:00:54.759Z,67.48
2019-04-10T21:03:28.563Z,67.77
2019-04-10T21:06:02.411Z,67.91
2019-04-10T21:08:36.352Z,68.34
2019-04-10T21:11:10.229Z,68.16
2019-04-10T21:13:44.698Z,68.32
2019-04-10T21:16:19.729Z,68.74
2019-04-10T21:18:53.938Z,69.02
2019-04-10T21:21:27.749Z,69.43
2019-04-10T21:24:02.997Z,69.25
2019-04-10T21:26:37.314Z,69.73
2019-04-10T21:29:16.371Z,69.87
2019-04-10T21:32:01.100Z,70.18
2019-04-10T21:34:39.095Z,70.05
2019-04-10T21:37:13.588Z,70.32
2019-04-10T21:39:47.505Z,70.42
2019-04-10T21:42:24.272Z,70.63
2019-04-10T21:44:57.542Z,70.55
2019-04-10T21:47:31.414Z,70.81
2019-04-10T21:50:06.892Z,70.93
2019-04-10T21:52:41.396Z,71.39
2019-04-10T21:55:15.242Z,71.79
2019-04-10T21:57:49.143Z,71.76
2019-04-10T22:00:36.559Z,71.62
2019-04-10T22:03:11.240Z,71.56
2019-04-10T22:05:47.237Z,71.95
2019-04-10T22:08:31.571Z,71.99
2019-04-10T22:11:06.394Z,72.11
2019-04-10T22:13:40.364Z,72.12
2019-04-10T22:16:17.848Z,72.30
2019-04-10T22:18:52.027Z,72.41
2019-04-10T22:21:25.851Z,71.96
2019-04-10T22:24:00.972Z,72.31
2019-04-10T22:26:34.918Z,72.39
2019-04-10T22:29:10.618Z,72.08
2019-04-10T22:31:45.817Z,72.19
2019-04-10T22:34:19.960Z,72.70
2019-04-10T22:36:53.775Z,72.15
2019-04-10T22:39:27.883Z,72.74
2019-04-10T22:42:01.964Z,72.87
2019-04-10T22:44:40.881Z,72.46
2019-04-10T22:47:11.833Z,72.76
2019-04-10T22:49:45.774Z,72.27
2019-04-10T22:52:20.063Z,72.21
2019-04-10T22:54:55.262Z,72.39
2019-04-10T22:57:29.331Z,72.17
2019-04-10T23:00:03.425Z,72.44
2019-04-10T23:02:37.676Z,72.26
2019-04-10T23:05:12.034Z,72.30
2019-04-10T23:07:47.162Z,72.03
2019-04-10T23:10:21.612Z,72.44
2019-04-10T23:13:01.398Z,72.42
2019-04-10T23:15:31.456Z,72.34
2019-04-10T23:18:05.580Z,73.02
2019-04-10T23:20:39.781Z,72.94
2019-04-10T23:23:14.702Z,72.81
2019-04-10T23:25:48.863Z,72.60
2019-04-10T23:28:23.386Z,72.70
2019-04-10T23:30:57.371Z,73.04
2019-04-10T23:33:33.031Z,72.92
2019-04-10T23:36:07.673Z,73.07
2019-04-10T23:38:41.941Z,72.98
2019-04-10T23:41:15.729Z,73.44
2019-04-10T23:43:49.457Z,73.61
2019-04-10T23:46:23.594Z,73.41
2019-04-10T23:48:57.666Z,73.59
2019-04-10T23:51:31.570Z,73.35
2019-04-10T23:54:05.815Z,73.67
2019-04-10T23:56:39.908Z,73.72
2019-04-10T23:59:14.952Z,73.48
